Constanta, Romania

7:46 AM EET on February 22, 2017 (GMT +0200)
Strada Vasile Pârvan | | Change Station

Elev 111 ft 44.19 °N, 28.65 °E | Updated 60 seconds ago

Rain
Rain
40.6 °F
Feels Like 41 °F
N
1.9
Wind Variable Wind from SW
Gusts 9.3 mph

Today
High -- | Low -- °F
--% Chance of Precip.
Yesterday
High -- | Low -- °F
Precip. -- in
Pressure 29.86 in
Visibility -9999.0 miles
Clouds
Windchill 41 °F
Dew Point 34 °F
Humidity 76%
Rainfall 0.01 in
Snow Depth Not available.
6:54 AM 5:44 PM
Waning Crescent, 20% visible
METAR LRCK 220530Z 28014KT CAVOK 03/01 Q1011 NOSIG
Pressure 29.86 in
Visibility -9999.0 miles
Clouds
Windchill 41 °F
Dew Point 34 °F
Humidity 76%
Rainfall 0.01 in
Snow Depth Not available.
6:54 AM 5:44 PM
Waning Crescent, 20% visible
METAR LRCK 220530Z 28014KT CAVOK 03/01 Q1011 NOSIG

Get Your Daily Forecast Email!

Thanks for signing up!

Be on the lookout for a verification email in your inbox.

You'll start receiving the daily forecast at 8 AM.

×

10-Day Weather Forecast

×

Almanac

Astronomy

Feb. 22, 2017 Rise Set
Actual Time
Civil Twilight
Nautical Twilight
Astronomical Twilight
Moon
Length of Visible Light
Length of Day
Tomorrow will be .
, % of the Moon is Illuminated

Today's Extremes

Country Highs Country Lows

Community

WunderPhotos

Upload Photos

1,962,540 photos uploaded!

WunderBlog® & News

Nearby

Air Quality

  Air Quality AQ Index Pollutant
Not available.

Snow Depth

Station Depth Elevation

Earthquake Activity

City Distance Mag. Time & Date
Minimum magnitude displayed is 2.5.

Coastal Water Temperatures

Place Temperature

Stations

Nearby Weather Stations

Station Location Temp. Windchill Dew Point Humidity Wind Precip. Elev Updated Type